This is the latest recevied weather packets stored in our database for station/object W4OTS. If no packets are shown the sender has not sent any weather packets the latest 10 day(s).
| Time | Temp. | Humidity | Pressure | Rain* | Wind** | Luminosity | Snow |
|---|---|---|---|---|---|---|---|
| 1777809678 | 7.22° C | 80% | 1021.7 hPa | 0 mm | - | 37 W/m² | - |
| 1777809375 | 6.67° C | 82% | 1021.8 hPa | 0 mm | - | 35 W/m² | - |
| 1777809072 | 6.67° C | 83% | 1021.8 hPa | 0 mm | - | 34 W/m² | - |
| 1777808765 | 6.11° C | 83% | 1021.8 hPa | 0 mm | - | 33 W/m² | - |
| 1777808461 | 5.56° C | 85% | 1021.6 hPa | 0 mm | - | 31 W/m² | - |
| 1777808159 | 5° C | 89% | 1021.5 hPa | 0 mm | - | 29 W/m² | - |
| 1777807857 | 5° C | 89% | 1021.4 hPa | 0 mm | - | 28 W/m² | - |
| 1777807555 | 3.89° C | 92% | 1021.5 hPa | 0 mm | - | 25 W/m² | - |
| 1777807251 | 3.89° C | 94% | 1021.4 hPa | 0 mm | - | 23 W/m² | - |
| 1777806947 | 3.33° C | 94% | 1021.5 hPa | 0 mm | - | 21 W/m² | - |
| 1777806644 | 3.33° C | 94% | 1021.5 hPa | 0 mm | - | 19 W/m² | - |
| 1777806339 | 3.33° C | 94% | 1021.4 hPa | 0 mm | - | 17 W/m² | - |
| 1777806037 | 3.33° C | 95% | 1021.2 hPa | 0 mm | - | 13 W/m² | - |
| 1777805733 | 3.33° C | 95% | 1021 hPa | 0 mm | - | 11 W/m² | - |
| 1777805431 | 2.78° C | 95% | 1021.2 hPa | 0 mm | - | 9 W/m² | - |
| 1777805128 | 2.78° C | 95% | 1021.2 hPa | 0 mm | - | 6 W/m² | - |
| 1777804826 | 2.78° C | 95% | 1020.9 hPa | 0 mm | - | 3 W/m² | - |
| 1777804524 | 2.78° C | 95% | 1020.7 hPa | 0 mm | - | 1 W/m² | - |
| 1777804221 | 2.78° C | 95% | 1020.9 hPa | 0 mm | - | 0 W/m² | - |
| 1777803918 | 3.33° C | 94% | 1020.9 hPa | 0 mm | - | 0 W/m² | - |
| 1777803615 | 3.33° C | 94% | 1020.6 hPa | 0 mm | - | 0 W/m² | - |
| 1777803311 | 3.89° C | 93% | 1020.5 hPa | 0 mm | - | 0 W/m² | - |
| 1777803008 | 3.89° C | 91% | 1020.3 hPa | 0 mm | - | 0 W/m² | - |
| 1777802706 | 4.44° C | 89% | 1020.5 hPa | 0 mm | - | 0 W/m² | - |
| 1777802403 | 4.44° C | 86% | 1020.4 hPa | 0 mm | - | 0 W/m² | - |
* Rain latest hour (hover to see other rain measurements)
** Current wind speed in m/s (hover to see current wind gust speed)